createdAt,value
2018-03-11T00:00:00.233Z,804.94
2018-03-11T00:00:04.667Z,804.91
2018-03-11T00:00:08.673Z,804.9
2018-03-11T00:00:12.461Z,804.89
2018-03-11T00:00:16.570Z,804.86
2018-03-11T00:00:20.678Z,804.89
2018-03-11T00:00:24.905Z,804.88
2018-03-11T00:00:28.798Z,804.87
2018-03-11T00:00:32.915Z,804.89
2018-03-11T00:00:36.922Z,804.9
2018-03-11T00:00:40.819Z,804.88
2018-03-11T00:00:44.825Z,804.87
2018-03-11T00:00:48.835Z,804.87
2018-03-11T00:00:52.726Z,804.85
2018-03-11T00:00:56.515Z,804.82
2018-03-11T00:01:00.523Z,804.85
2018-03-11T00:01:04.643Z,804.86
2018-03-11T00:01:08.432Z,804.83
2018-03-11T00:01:12.441Z,804.84
2018-03-11T00:01:16.458Z,804.81
2018-03-11T00:01:20.722Z,804.85
2018-03-11T00:01:24.835Z,804.86
2018-03-11T00:01:29.222Z,804.83
2018-03-11T00:01:33.225Z,804.82
2018-03-11T00:01:37.443Z,804.83
2018-03-11T00:01:41.448Z,804.79
2018-03-11T00:01:45.663Z,804.76
2018-03-11T00:01:49.350Z,804.8
2018-03-11T00:01:53.141Z,804.8
2018-03-11T00:01:56.824Z,804.8
2018-03-11T00:02:00.611Z,804.8
2018-03-11T00:02:04.970Z,804.76
2018-03-11T00:02:08.764Z,804.72
2018-03-11T00:02:12.453Z,804.75
2018-03-11T00:02:16.483Z,804.72
2018-03-11T00:02:21.155Z,804.7
2018-03-11T00:02:25.269Z,804.71
2018-03-11T00:02:29.390Z,804.69
2018-03-11T00:02:33.391Z,804.74
2018-03-11T00:02:37.506Z,804.74
2018-03-11T00:02:41.303Z,804.76
2018-03-11T00:02:45.211Z,804.74
2018-03-11T00:02:49.107Z,804.74
2018-03-11T00:02:53.005Z,804.72
2018-03-11T00:02:57.009Z,804.69
2018-03-11T00:03:00.802Z,804.73
2018-03-11T00:03:04.928Z,804.72
2018-03-11T00:03:08.937Z,804.71
2018-03-11T00:03:12.833Z,804.73
2018-03-11T00:03:16.944Z,804.72
2018-03-11T00:03:21.068Z,804.7
2018-03-11T00:03:24.967Z,804.72
2018-03-11T00:03:28.761Z,804.71
2018-03-11T00:03:32.875Z,804.71
2018-03-11T00:03:36.881Z,804.64
2018-03-11T00:03:40.880Z,804.64
2018-03-11T00:03:44.991Z,804.7
2018-03-11T00:03:49.338Z,804.61
2018-03-11T00:03:53.460Z,804.65
2018-03-11T00:03:57.780Z,804.63
2018-03-11T00:04:01.891Z,804.61
2018-03-11T00:04:05.996Z,804.61
2018-03-11T00:04:10.053Z,804.61
2018-03-11T00:04:14.276Z,804.61
2018-03-11T00:04:18.280Z,804.61
2018-03-11T00:04:22.501Z,804.59
2018-03-11T00:04:26.508Z,804.59
2018-03-11T00:04:30.520Z,804.56
2018-03-11T00:04:34.747Z,804.62
2018-03-11T00:04:38.986Z,804.55
2018-03-11T00:04:42.993Z,804.53
2018-03-11T00:04:47.220Z,804.55
2018-03-11T00:04:51.233Z,804.59
2018-03-11T00:04:55.452Z,804.57
2018-03-11T00:04:59.464Z,804.56
2018-03-11T00:05:03.516Z,804.57
2018-03-11T00:05:07.419Z,804.53
2018-03-11T00:05:11.533Z,804.55
2018-03-11T00:05:15.761Z,804.52
2018-03-11T00:05:19.879Z,804.54
2018-03-11T00:05:24.208Z,804.54
2018-03-11T00:05:28.431Z,804.48
2018-03-11T00:05:32.656Z,804.5
2018-03-11T00:05:36.889Z,804.52
2018-03-11T00:05:41.001Z,804.46
2018-03-11T00:05:45.221Z,804.43
2018-03-11T00:05:49.221Z,804.47
2018-03-11T00:05:53.553Z,804.46
2018-03-11T00:05:57.665Z,804.46
2018-03-11T00:06:01.889Z,804.46
2018-03-11T00:06:06.117Z,804.44
2018-03-11T00:06:10.336Z,804.44
2018-03-11T00:06:14.241Z,804.46
2018-03-11T00:06:18.244Z,804.42
2018-03-11T00:06:22.368Z,804.47
2018-03-11T00:06:26.599Z,804.46
2018-03-11T00:06:30.828Z,804.42
2018-03-11T00:06:34.845Z,804.44
2018-03-11T00:06:39.068Z,804.44
2018-03-11T00:06:43.398Z,804.45
2018-03-11T00:06:47.512Z,804.39
2018-03-11T00:06:51.534Z,804.41
2018-03-11T00:06:55.738Z,804.41
2018-03-11T00:06:59.738Z,804.41
2018-03-11T00:07:04.153Z,804.39
2018-03-11T00:07:08.378Z,804.4
2018-03-11T00:07:12.493Z,804.41
2018-03-11T00:07:16.394Z,804.39
2018-03-11T00:07:20.612Z,804.42
2018-03-11T00:07:24.732Z,804.37
2018-03-11T00:07:29.064Z,804.37
2018-03-11T00:07:33.067Z,804.34
2018-03-11T00:07:37.295Z,804.37
2018-03-11T00:07:41.302Z,804.36
2018-03-11T00:07:45.418Z,804.32
2018-03-11T00:07:49.534Z,804.35
2018-03-11T00:07:53.646Z,804.35
2018-03-11T00:07:57.868Z,804.35
2018-03-11T00:08:02.265Z,804.33
2018-03-11T00:08:06.393Z,804.35
2018-03-11T00:08:10.508Z,804.3
2018-03-11T00:08:14.839Z,804.32
2018-03-11T00:08:18.960Z,804.28
2018-03-11T00:08:23.080Z,804.3
2018-03-11T00:08:27.416Z,804.3
2018-03-11T00:08:31.751Z,804.31
2018-03-11T00:08:36.074Z,804.29
2018-03-11T00:08:40.294Z,804.27
2018-03-11T00:08:44.298Z,804.26
2018-03-11T00:08:48.632Z,804.23
2018-03-11T00:08:52.972Z,804.22
2018-03-11T00:08:57.201Z,804.19
2018-03-11T00:09:01.423Z,804.21
2018-03-11T00:09:05.573Z,804.24
2018-03-11T00:09:09.578Z,804.21
2018-03-11T00:09:13.922Z,804.24
2018-03-11T00:09:18.144Z,804.24
2018-03-11T00:09:22.370Z,804.22
2018-03-11T00:09:26.378Z,804.22
2018-03-11T00:09:30.530Z,804.24
2018-03-11T00:09:34.645Z,804.2
2018-03-11T00:09:38.770Z,804.16
2018-03-11T00:09:42.877Z,804.19
2018-03-11T00:09:46.994Z,804.2
2018-03-11T00:09:51.247Z,804.2
2018-03-11T00:09:55.459Z,804.13
2018-03-11T00:09:59.631Z,804.16
2018-03-11T00:10:03.742Z,804.18
2018-03-11T00:10:07.970Z,804.12
2018-03-11T00:10:11.979Z,804.09
2018-03-11T00:10:16.308Z,804.11
2018-03-11T00:10:20.319Z,804.11
2018-03-11T00:10:24.650Z,804.1
2018-03-11T00:10:28.873Z,804.13
2018-03-11T00:10:33.003Z,804.1
2018-03-11T00:10:36.901Z,804.1
2018-03-11T00:10:40.906Z,804.12
2018-03-11T00:10:45.019Z,804.1
2018-03-11T00:10:49.028Z,804.08
2018-03-11T00:10:53.306Z,804.09
2018-03-11T00:10:57.534Z,804.11
2018-03-11T00:11:01.649Z,804.08
2018-03-11T00:11:05.444Z,804.09
2018-03-11T00:11:09.452Z,804.08
2018-03-11T00:11:13.677Z,804.05
2018-03-11T00:11:17.796Z,804.05
2018-03-11T00:11:22.125Z,804.03
2018-03-11T00:11:26.348Z,803.99
2018-03-11T00:11:30.458Z,804.01
2018-03-11T00:11:34.581Z,804
2018-03-11T00:11:38.475Z,803.97
2018-03-11T00:11:42.270Z,803.99
2018-03-11T00:11:46.278Z,803.98
2018-03-11T00:11:50.495Z,804.04
2018-03-11T00:11:54.619Z,804.01
2018-03-11T00:11:58.517Z,804.03
2018-03-11T00:12:02.746Z,804.03
2018-03-11T00:12:07.110Z,803.99
2018-03-11T00:12:11.436Z,803.97
2018-03-11T00:12:15.435Z,803.97
2018-03-11T00:12:19.558Z,803.98
2018-03-11T00:12:23.568Z,803.99
2018-03-11T00:12:27.802Z,803.99
2018-03-11T00:12:31.917Z,803.98
2018-03-11T00:12:36.032Z,804.01
2018-03-11T00:12:40.033Z,803.95
2018-03-11T00:12:44.037Z,803.95
2018-03-11T00:12:48.158Z,803.98
2018-03-11T00:12:51.845Z,803.96
2018-03-11T00:12:55.853Z,803.94
2018-03-11T00:12:59.755Z,803.95
2018-03-11T00:13:03.961Z,803.96
2018-03-11T00:13:08.075Z,803.94
2018-03-11T00:13:12.188Z,803.92
2018-03-11T00:13:16.192Z,803.95
2018-03-11T00:13:20.192Z,803.92
2018-03-11T00:13:24.419Z,803.93
2018-03-11T00:13:28.770Z,803.93
2018-03-11T00:13:32.995Z,803.9
2018-03-11T00:13:36.998Z,803.9
2018-03-11T00:13:41.221Z,803.9
2018-03-11T00:13:45.129Z,803.9
2018-03-11T00:13:49.135Z,803.9
2018-03-11T00:13:53.247Z,803.92
2018-03-11T00:13:57.577Z,803.93
2018-03-11T00:14:01.691Z,803.92
2018-03-11T00:14:05.961Z,803.9
2018-03-11T00:14:10.070Z,803.89
2018-03-11T00:14:14.180Z,803.88
2018-03-11T00:14:18.401Z,803.83
2018-03-11T00:14:22.508Z,803.83
2018-03-11T00:14:26.514Z,803.87
2018-03-11T00:14:30.728Z,803.85
2018-03-11T00:14:34.957Z,803.84
2018-03-11T00:14:38.993Z,803.88
2018-03-11T00:14:43.451Z,803.87
2018-03-11T00:14:47.630Z,803.87
2018-03-11T00:14:51.640Z,803.83
2018-03-11T00:14:55.754Z,803.85
2018-03-11T00:14:59.870Z,803.83
2018-03-11T00:15:04.188Z,803.84
2018-03-11T00:15:08.514Z,803.83
2018-03-11T00:15:12.634Z,803.81
2018-03-11T00:15:16.643Z,803.8
2018-03-11T00:15:20.653Z,803.79
2018-03-11T00:15:24.875Z,803.83
2018-03-11T00:15:28.992Z,803.79
2018-03-11T00:15:33.209Z,803.79
2018-03-11T00:15:37.539Z,803.8
2018-03-11T00:15:41.661Z,803.79
2018-03-11T00:15:45.773Z,803.77
2018-03-11T00:15:49.783Z,803.75
2018-03-11T00:15:53.687Z,803.78
2018-03-11T00:15:57.902Z,803.75
2018-03-11T00:16:02.016Z,803.69
2018-03-11T00:16:06.188Z,803.74
2018-03-11T00:16:10.438Z,803.73
2018-03-11T00:16:14.773Z,803.77
2018-03-11T00:16:18.996Z,803.74
2018-03-11T00:16:23.012Z,803.75
2018-03-11T00:16:27.124Z,803.75
2018-03-11T00:16:31.645Z,803.75
2018-03-11T00:16:35.649Z,803.75
2018-03-11T00:16:39.872Z,803.71
2018-03-11T00:16:44.097Z,803.71
2018-03-11T00:16:48.448Z,803.74
2018-03-11T00:16:52.667Z,803.74
2018-03-11T00:16:56.676Z,803.73
2018-03-11T00:17:01.021Z,803.76
2018-03-11T00:17:05.233Z,803.69
2018-03-11T00:17:09.247Z,803.7
2018-03-11T00:17:13.362Z,803.72
2018-03-11T00:17:17.688Z,803.69
2018-03-11T00:17:21.818Z,803.71
2018-03-11T00:17:26.150Z,803.62
2018-03-11T00:17:30.262Z,803.65
2018-03-11T00:17:34.594Z,803.7
2018-03-11T00:17:38.809Z,803.58
2018-03-11T00:17:43.034Z,803.61
2018-03-11T00:17:47.257Z,803.6
2018-03-11T00:17:51.372Z,803.66
2018-03-11T00:17:55.698Z,803.65
2018-03-11T00:18:00.027Z,803.65
2018-03-11T00:18:04.033Z,803.63
2018-03-11T00:18:08.045Z,803.66
2018-03-11T00:18:12.168Z,803.62
2018-03-11T00:18:16.390Z,803.64
2018-03-11T00:18:20.714Z,803.62
2018-03-11T00:18:24.938Z,803.58
2018-03-11T00:18:29.161Z,803.61
2018-03-11T00:18:33.188Z,803.59
2018-03-11T00:18:37.413Z,803.59
2018-03-11T00:18:41.751Z,803.61
2018-03-11T00:18:46.089Z,803.61
2018-03-11T00:18:50.309Z,803.61
2018-03-11T00:18:54.636Z,803.54
2018-03-11T00:18:58.751Z,803.57
2018-03-11T00:19:02.644Z,803.55
2018-03-11T00:19:06.986Z,803.5
2018-03-11T00:19:11.097Z,803.52
2018-03-11T00:19:15.211Z,803.51
2018-03-11T00:19:19.326Z,803.51
2018-03-11T00:19:23.553Z,803.47
2018-03-11T00:19:27.797Z,803.48
2018-03-11T00:19:31.907Z,803.54
2018-03-11T00:19:36.231Z,803.55
2018-03-11T00:19:40.455Z,803.54
2018-03-11T00:19:44.462Z,803.51
2018-03-11T00:19:48.472Z,803.54
2018-03-11T00:19:52.795Z,803.55
2018-03-11T00:19:56.918Z,803.54
2018-03-11T00:20:01.140Z,803.47
2018-03-11T00:20:05.530Z,803.49
2018-03-11T00:20:09.765Z,803.49
2018-03-11T00:20:13.988Z,803.5
2018-03-11T00:20:18.208Z,803.48
2018-03-11T00:20:22.319Z,803.45
2018-03-11T00:20:26.546Z,803.45
2018-03-11T00:20:30.548Z,803.5
2018-03-11T00:20:34.660Z,803.42
2018-03-11T00:20:38.773Z,803.41
2018-03-11T00:20:43.106Z,803.45
2018-03-11T00:20:47.438Z,803.44
2018-03-11T00:20:51.767Z,803.45
2018-03-11T00:20:55.670Z,803.43
2018-03-11T00:21:00.001Z,803.41
2018-03-11T00:21:03.900Z,803.45
2018-03-11T00:21:08.020Z,803.44
2018-03-11T00:21:12.029Z,803.4
2018-03-11T00:21:16.253Z,803.45
2018-03-11T00:21:20.153Z,803.37
2018-03-11T00:21:24.374Z,803.35
2018-03-11T00:21:28.590Z,803.36
2018-03-11T00:21:32.706Z,803.32
2018-03-11T00:21:36.821Z,803.42
2018-03-11T00:21:41.045Z,803.37
2018-03-11T00:21:44.723Z,803.39
2018-03-11T00:21:49.062Z,803.38
2018-03-11T00:21:53.174Z,803.37
2018-03-11T00:21:57.284Z,803.38
2018-03-11T00:22:01.411Z,803.36
2018-03-11T00:22:05.748Z,803.36
2018-03-11T00:22:09.976Z,803.38
2018-03-11T00:22:14.307Z,803.39
2018-03-11T00:22:18.420Z,803.35
2018-03-11T00:22:22.644Z,803.33
2018-03-11T00:22:26.866Z,803.36
2018-03-11T00:22:31.081Z,803.35
2018-03-11T00:22:35.100Z,803.28
2018-03-11T00:22:39.327Z,803.29
2018-03-11T00:22:43.556Z,803.33
2018-03-11T00:22:47.779Z,803.26
2018-03-11T00:22:51.821Z,803.31
2018-03-11T00:22:56.152Z,803.29
2018-03-11T00:23:00.268Z,803.3
2018-03-11T00:23:04.728Z,803.29
2018-03-11T00:23:08.846Z,803.25
2018-03-11T00:23:12.857Z,803.28
2018-03-11T00:23:16.970Z,803.28
2018-03-11T00:23:21.082Z,803.28
2018-03-11T00:23:25.195Z,803.27
2018-03-11T00:23:29.413Z,803.25
2018-03-11T00:23:33.630Z,803.23
2018-03-11T00:23:37.531Z,803.22
2018-03-11T00:23:41.640Z,803.22
2018-03-11T00:23:45.970Z,803.27
2018-03-11T00:23:50.082Z,803.28
2018-03-11T00:23:54.312Z,803.26
2018-03-11T00:23:58.640Z,803.25
2018-03-11T00:24:02.658Z,803.23
2018-03-11T00:24:06.666Z,803.23
2018-03-11T00:24:11.004Z,803.25
2018-03-11T00:24:14.900Z,803.23
2018-03-11T00:24:19.012Z,803.24
2018-03-11T00:24:23.122Z,803.19
2018-03-11T00:24:27.130Z,803.21
2018-03-11T00:24:31.355Z,803.19
2018-03-11T00:24:35.578Z,803.19
2018-03-11T00:24:39.694Z,803.21
2018-03-11T00:24:43.903Z,803.12
2018-03-11T00:24:47.908Z,803.15
2018-03-11T00:24:52.122Z,803.18
2018-03-11T00:24:56.448Z,803.12
2018-03-11T00:25:00.680Z,803.19
2018-03-11T00:25:04.941Z,803.2
2018-03-11T00:25:08.945Z,803.17
2018-03-11T00:25:13.064Z,803.16
2018-03-11T00:25:17.399Z,803.15
2018-03-11T00:25:21.512Z,803.17
2018-03-11T00:25:25.733Z,803.16
2018-03-11T00:25:29.847Z,803.13
2018-03-11T00:25:33.963Z,803.16
2018-03-11T00:25:38.292Z,803.09
2018-03-11T00:25:42.622Z,803.09
2018-03-11T00:25:46.634Z,803.08
2018-03-11T00:25:50.797Z,803.09
2018-03-11T00:25:54.805Z,803.03
2018-03-11T00:25:58.932Z,803.1
2018-03-11T00:26:03.319Z,803.08
2018-03-11T00:26:07.330Z,803.09
2018-03-11T00:26:11.234Z,803.1
2018-03-11T00:26:15.350Z,803.06
2018-03-11T00:26:19.359Z,803.06
2018-03-11T00:26:23.696Z,803.06
2018-03-11T00:26:27.923Z,803.03
2018-03-11T00:26:32.142Z,803.05
2018-03-11T00:26:36.258Z,803.04
2018-03-11T00:26:40.371Z,803.02
2018-03-11T00:26:44.490Z,803.05
2018-03-11T00:26:48.605Z,803.03
2018-03-11T00:26:52.606Z,803.04
2018-03-11T00:26:56.611Z,803.03
2018-03-11T00:27:00.839Z,802.98
2018-03-11T00:27:05.213Z,803
2018-03-11T00:27:09.115Z,803.01
2018-03-11T00:27:13.238Z,803.02
2018-03-11T00:27:17.348Z,802.97
2018-03-11T00:27:21.466Z,802.97
2018-03-11T00:27:25.585Z,803
2018-03-11T00:27:29.817Z,802.97
2018-03-11T00:27:34.147Z,802.98
2018-03-11T00:27:38.151Z,802.99
2018-03-11T00:27:42.487Z,802.95
2018-03-11T00:27:46.609Z,802.96
2018-03-11T00:27:50.725Z,802.97
2018-03-11T00:27:55.054Z,802.99
2018-03-11T00:27:59.058Z,802.96
2018-03-11T00:28:03.223Z,802.94
2018-03-11T00:28:07.339Z,802.94
2018-03-11T00:28:11.562Z,802.94
2018-03-11T00:28:15.892Z,802.94
2018-03-11T00:28:19.897Z,802.93
2018-03-11T00:28:24.013Z,802.95
2018-03-11T00:28:28.345Z,802.9
2018-03-11T00:28:32.563Z,802.93
2018-03-11T00:28:36.461Z,802.89
2018-03-11T00:28:40.678Z,802.9
2018-03-11T00:28:44.895Z,802.9
2018-03-11T00:28:49.117Z,802.89
2018-03-11T00:28:53.122Z,802.84
2018-03-11T00:28:57.127Z,802.87
2018-03-11T00:29:01.252Z,802.84
2018-03-11T00:29:05.359Z,802.84
2018-03-11T00:29:09.700Z,802.87
2018-03-11T00:29:14.026Z,802.86
2018-03-11T00:29:18.573Z,802.86
2018-03-11T00:29:22.550Z,802.86
2018-03-11T00:29:26.666Z,802.82
2018-03-11T00:29:30.776Z,802.85
2018-03-11T00:29:34.669Z,802.82
2018-03-11T00:29:38.776Z,802.84
2018-03-11T00:29:42.786Z,802.82
2018-03-11T00:29:46.900Z,802.81
2018-03-11T00:29:51.020Z,802.75
2018-03-11T00:29:55.130Z,802.76
2018-03-11T00:29:59.134Z,802.83
2018-03-11T00:30:03.391Z,802.82
2018-03-11T00:30:07.406Z,802.79
2018-03-11T00:30:11.415Z,802.78
2018-03-11T00:30:15.536Z,802.75
2018-03-11T00:30:19.435Z,802.78
2018-03-11T00:30:23.448Z,802.75
2018-03-11T00:30:27.557Z,802.77
2018-03-11T00:30:31.776Z,802.72
2018-03-11T00:30:35.999Z,802.72
2018-03-11T00:30:40.225Z,802.7
2018-03-11T00:30:44.444Z,802.71
2018-03-11T00:30:48.769Z,802.72
2018-03-11T00:30:52.988Z,802.74
2018-03-11T00:30:57.108Z,802.77
2018-03-11T00:31:01.228Z,802.76
2018-03-11T00:31:05.353Z,802.73
2018-03-11T00:31:09.570Z,802.75
2018-03-11T00:31:13.684Z,802.72
2018-03-11T00:31:18.011Z,802.71
2018-03-11T00:31:22.240Z,802.74
2018-03-11T00:31:26.351Z,802.7
2018-03-11T00:31:30.462Z,802.71
2018-03-11T00:31:34.474Z,802.7
2018-03-11T00:31:38.586Z,802.69
2018-03-11T00:31:42.702Z,802.69
2018-03-11T00:31:47.033Z,802.67
2018-03-11T00:31:51.258Z,802.68
2018-03-11T00:31:55.159Z,802.65
2018-03-11T00:31:59.386Z,802.61
2018-03-11T00:32:03.732Z,802.62
2018-03-11T00:32:07.757Z,802.63
2018-03-11T00:32:11.984Z,802.61
2018-03-11T00:32:16.095Z,802.6
2018-03-11T00:32:20.310Z,802.59
2018-03-11T00:32:24.532Z,802.65
2018-03-11T00:32:28.643Z,802.61
2018-03-11T00:32:32.969Z,802.64
2018-03-11T00:32:37.082Z,802.63
2018-03-11T00:32:41.084Z,802.62
2018-03-11T00:32:45.092Z,802.66
2018-03-11T00:32:49.209Z,802.63
2018-03-11T00:32:53.324Z,802.64
2018-03-11T00:32:57.483Z,802.6
2018-03-11T00:33:01.488Z,802.6
2018-03-11T00:33:06.018Z,802.59
2018-03-11T00:33:10.020Z,802.57
2018-03-11T00:33:14.024Z,802.57
2018-03-11T00:33:18.244Z,802.57
2018-03-11T00:33:22.153Z,802.57
2018-03-11T00:33:26.262Z,802.56
2018-03-11T00:33:30.484Z,802.56
2018-03-11T00:33:34.384Z,802.56
2018-03-11T00:33:38.501Z,802.54
2018-03-11T00:33:42.407Z,802.54
2018-03-11T00:33:46.204Z,802.48
2018-03-11T00:33:50.208Z,802.46
2018-03-11T00:33:54.437Z,802.47
2018-03-11T00:33:58.644Z,802.5
2018-03-11T00:34:03.109Z,802.49
2018-03-11T00:34:07.452Z,802.5
2018-03-11T00:34:11.557Z,802.5
2018-03-11T00:34:15.563Z,802.5
2018-03-11T00:34:19.789Z,802.48
2018-03-11T00:34:23.904Z,802.49
2018-03-11T00:34:27.907Z,802.49
2018-03-11T00:34:32.017Z,802.47
2018-03-11T00:34:36.124Z,802.42
2018-03-11T00:34:40.067Z,802.46
2018-03-11T00:34:44.489Z,802.47
2018-03-11T00:34:48.698Z,802.48
2018-03-11T00:34:52.492Z,802.44
2018-03-11T00:34:56.601Z,802.46
2018-03-11T00:35:00.717Z,802.43
2018-03-11T00:35:04.833Z,802.45
2018-03-11T00:35:09.065Z,802.45
2018-03-11T00:35:13.188Z,802.44
2018-03-11T00:35:17.309Z,802.4
2018-03-11T00:35:21.419Z,802.42
2018-03-11T00:35:25.748Z,802.43
2018-03-11T00:35:29.655Z,802.42
2018-03-11T00:35:33.646Z,802.44
2018-03-11T00:35:37.764Z,802.41
2018-03-11T00:35:41.980Z,802.42
2018-03-11T00:35:46.194Z,802.43
2018-03-11T00:35:50.428Z,802.43
2018-03-11T00:35:54.544Z,802.41
2018-03-11T00:35:58.769Z,802.39
2018-03-11T00:36:02.862Z,802.42
2018-03-11T00:36:06.868Z,802.38
2018-03-11T00:36:11.192Z,802.35
2018-03-11T00:36:15.521Z,802.37
2018-03-11T00:36:19.635Z,802.38
2018-03-11T00:36:23.755Z,802.33
2018-03-11T00:36:27.873Z,802.37
2018-03-11T00:36:32.107Z,802.38
2018-03-11T00:36:36.326Z,802.32
2018-03-11T00:36:40.567Z,802.32
2018-03-11T00:36:44.676Z,802.32
2018-03-11T00:36:48.903Z,802.32
2018-03-11T00:36:53.019Z,802.37
2018-03-11T00:36:57.126Z,802.34
2018-03-11T00:37:01.145Z,802.35
2018-03-11T00:37:05.471Z,802.36
2018-03-11T00:37:09.588Z,802.36
2018-03-11T00:37:13.592Z,802.35
2018-03-11T00:37:17.810Z,802.36
2018-03-11T00:37:22.027Z,802.36
2018-03-11T00:37:26.348Z,802.35
2018-03-11T00:37:30.459Z,802.34
2018-03-11T00:37:34.693Z,802.27
2018-03-11T00:37:39.026Z,802.35
2018-03-11T00:37:43.140Z,802.32
2018-03-11T00:37:47.149Z,802.35
2018-03-11T00:37:51.266Z,802.35
2018-03-11T00:37:55.378Z,802.33
2018-03-11T00:37:59.490Z,802.32
2018-03-11T00:38:03.916Z,802.33
2018-03-11T00:38:07.921Z,802.35
2018-03-11T00:38:12.256Z,802.34
2018-03-11T00:38:16.269Z,802.33
2018-03-11T00:38:20.502Z,802.33
2018-03-11T00:38:24.628Z,802.29
2018-03-11T00:38:28.845Z,802.31
2018-03-11T00:38:33.170Z,802.31
2018-03-11T00:38:37.286Z,802.36
2018-03-11T00:38:41.610Z,802.32
2018-03-11T00:38:45.721Z,802.3
2018-03-11T00:38:49.938Z,802.33
2018-03-11T00:38:54.166Z,802.32
2018-03-11T00:38:58.488Z,802.31
2018-03-11T00:39:02.443Z,802.33
2018-03-11T00:39:06.561Z,802.32
2018-03-11T00:39:10.788Z,802.35
2018-03-11T00:39:15.012Z,802.33
2018-03-11T00:39:19.144Z,802.33
2018-03-11T00:39:23.151Z,802.31
2018-03-11T00:39:27.405Z,802.31
2018-03-11T00:39:31.522Z,802.3
2018-03-11T00:39:35.648Z,802.29
2018-03-11T00:39:39.864Z,802.31
2018-03-11T00:39:43.971Z,802.26
2018-03-11T00:39:48.189Z,802.26
2018-03-11T00:39:52.302Z,802.3
2018-03-11T00:39:56.629Z,802.29
2018-03-11T00:40:00.852Z,802.26
2018-03-11T00:40:19.790Z,802.29
2018-03-11T00:40:24.011Z,802.32
2018-03-11T00:40:28.379Z,802.29
2018-03-11T00:40:32.495Z,802.28
2018-03-11T00:40:36.394Z,802.29
2018-03-11T00:40:40.613Z,802.31
2018-03-11T00:40:44.620Z,802.3
2018-03-11T00:40:48.948Z,802.3
2018-03-11T00:40:53.173Z,802.28
2018-03-11T00:40:57.173Z,802.29
2018-03-11T00:41:01.180Z,802.3
2018-03-11T00:41:05.301Z,802.29
2018-03-11T00:41:09.302Z,802.29
2018-03-11T00:41:13.424Z,802.3
2018-03-11T00:41:17.539Z,802.29
2018-03-11T00:41:21.645Z,802.3
2018-03-11T00:41:25.661Z,802.31
2018-03-11T00:41:29.673Z,802.31
2018-03-11T00:41:33.917Z,802.31
2018-03-11T00:41:38.030Z,802.3
2018-03-11T00:41:42.250Z,802.31
2018-03-11T00:41:46.373Z,802.3
2018-03-11T00:41:50.487Z,802.31
2018-03-11T00:41:54.602Z,802.3
2018-03-11T00:41:58.715Z,802.3
2018-03-11T00:42:02.828Z,802.29
2018-03-11T00:42:06.833Z,802.28
2018-03-11T00:42:11.056Z,802.29
2018-03-11T00:42:15.378Z,802.31
2018-03-11T00:42:19.387Z,802.29
2018-03-11T00:42:23.400Z,802.31
2018-03-11T00:42:27.736Z,802.3
2018-03-11T00:42:32.068Z,802.29
2018-03-11T00:42:36.092Z,802.25
2018-03-11T00:42:40.199Z,802.28
2018-03-11T00:42:44.526Z,802.3
2018-03-11T00:42:48.744Z,802.3
2018-03-11T00:42:52.648Z,802.28
2018-03-11T00:42:56.766Z,802.3
2018-03-11T00:43:00.998Z,802.33
2018-03-11T00:43:05.409Z,802.31
2018-03-11T00:43:09.713Z,802.29
2018-03-11T00:43:14.165Z,802.29
2018-03-11T00:43:18.427Z,802.32
2018-03-11T00:43:22.437Z,802.29
2018-03-11T00:43:26.558Z,802.28
2018-03-11T00:43:30.785Z,802.31
2018-03-11T00:43:34.794Z,802.29
2018-03-11T00:43:38.916Z,802.29
2018-03-11T00:43:43.241Z,802.32
2018-03-11T00:43:47.353Z,802.3
2018-03-11T00:43:51.470Z,802.29
2018-03-11T00:43:55.809Z,802.3
2018-03-11T00:44:00.038Z,802.31
2018-03-11T00:44:04.467Z,802.31
2018-03-11T00:44:08.701Z,802.33
2018-03-11T00:44:12.923Z,802.31
2018-03-11T00:44:17.035Z,802.33
2018-03-11T00:44:21.050Z,802.3
2018-03-11T00:44:25.060Z,802.31
2018-03-11T00:44:29.175Z,802.3
2018-03-11T00:44:33.178Z,802.32
2018-03-11T00:44:37.410Z,802.31
2018-03-11T00:44:41.729Z,802.31
2018-03-11T00:44:45.992Z,802.3
2018-03-11T00:44:50.213Z,802.31
2018-03-11T00:44:54.331Z,802.31
2018-03-11T00:44:58.670Z,802.31
2018-03-11T00:45:03.359Z,802.33
2018-03-11T00:45:07.371Z,802.32
2018-03-11T00:45:11.702Z,802.3
2018-03-11T00:45:15.921Z,802.34
2018-03-11T00:45:20.249Z,802.34
2018-03-11T00:45:24.470Z,802.33
2018-03-11T00:45:28.479Z,802.33
2018-03-11T00:45:32.695Z,802.33
2018-03-11T00:45:36.925Z,802.36
2018-03-11T00:45:41.040Z,802.33
2018-03-11T00:45:45.264Z,802.34
2018-03-11T00:45:49.388Z,802.31
2018-03-11T00:45:53.398Z,802.31
2018-03-11T00:45:57.618Z,802.3
2018-03-11T00:46:01.837Z,802.3
2018-03-11T00:46:06.167Z,802.35
2018-03-11T00:46:10.074Z,802.34
2018-03-11T00:46:14.408Z,802.34
2018-03-11T00:46:18.531Z,802.35
2018-03-11T00:46:22.751Z,802.33
2018-03-11T00:46:26.761Z,802.33
2018-03-11T00:46:30.782Z,802.33
2018-03-11T00:46:34.691Z,802.4
2018-03-11T00:46:38.913Z,802.37
2018-03-11T00:46:42.919Z,802.39
2018-03-11T00:46:47.137Z,802.35
2018-03-11T00:46:51.254Z,802.38
2018-03-11T00:46:55.471Z,802.41
2018-03-11T00:46:59.690Z,802.35
2018-03-11T00:47:03.857Z,802.34
2018-03-11T00:47:08.179Z,802.35
2018-03-11T00:47:12.395Z,802.34
2018-03-11T00:47:16.303Z,802.4
2018-03-11T00:47:20.629Z,802.39
2018-03-11T00:47:24.904Z,802.4
2018-03-11T00:47:29.020Z,802.4
2018-03-11T00:47:33.352Z,802.36
2018-03-11T00:47:37.572Z,802.39
2018-03-11T00:47:41.579Z,802.35
2018-03-11T00:47:45.801Z,802.42
2018-03-11T00:47:49.916Z,802.45
2018-03-11T00:47:54.024Z,802.43
2018-03-11T00:47:58.153Z,802.47
2018-03-11T00:48:02.362Z,802.45
2018-03-11T00:48:06.474Z,802.42
2018-03-11T00:48:10.707Z,802.46
2018-03-11T00:48:14.936Z,802.45
2018-03-11T00:48:19.048Z,802.45
2018-03-11T00:48:23.279Z,802.45
2018-03-11T00:48:27.499Z,802.47
2018-03-11T00:48:31.724Z,802.49
2018-03-11T00:48:36.055Z,802.52
2018-03-11T00:48:40.391Z,802.5
2018-03-11T00:48:44.397Z,802.46
2018-03-11T00:48:48.530Z,802.47
2018-03-11T00:48:52.754Z,802.46
2018-03-11T00:48:56.974Z,802.54
2018-03-11T00:49:00.871Z,802.52
2018-03-11T00:49:05.072Z,802.57
2018-03-11T00:49:09.400Z,802.55
2018-03-11T00:49:13.612Z,802.53
2018-03-11T00:49:17.832Z,802.54
2018-03-11T00:49:22.047Z,802.57
2018-03-11T00:49:26.192Z,802.56
2018-03-11T00:49:30.420Z,802.56
2018-03-11T00:49:34.642Z,802.57
2018-03-11T00:49:38.763Z,802.58
2018-03-11T00:49:42.872Z,802.58
2018-03-11T00:49:47.093Z,802.58
2018-03-11T00:49:51.099Z,802.6
2018-03-11T00:49:55.320Z,802.59
2018-03-11T00:49:59.428Z,802.56
2018-03-11T00:50:03.547Z,802.56
2018-03-11T00:50:07.554Z,802.58
2018-03-11T00:50:11.783Z,802.64
2018-03-11T00:50:16.118Z,802.64
2018-03-11T00:50:20.233Z,802.64
2018-03-11T00:50:24.135Z,802.64
2018-03-11T00:50:28.358Z,802.65
2018-03-11T00:50:32.586Z,802.65
2018-03-11T00:50:36.592Z,802.64
2018-03-11T00:50:40.822Z,802.69
2018-03-11T00:50:44.941Z,802.67
2018-03-11T00:50:49.164Z,802.65
2018-03-11T00:50:53.172Z,802.68
2018-03-11T00:50:57.183Z,802.69
2018-03-11T00:51:01.078Z,802.68
2018-03-11T00:51:05.189Z,802.7
2018-03-11T00:51:09.089Z,802.7
2018-03-11T00:51:13.313Z,802.69
2018-03-11T00:51:17.325Z,802.73
2018-03-11T00:51:21.113Z,802.72
2018-03-11T00:51:25.225Z,802.71
2018-03-11T00:51:29.229Z,802.77
2018-03-11T00:51:33.451Z,802.72
2018-03-11T00:51:37.565Z,802.73
2018-03-11T00:51:41.463Z,802.76
2018-03-11T00:51:45.685Z,802.8
2018-03-11T00:51:49.583Z,802.76
2018-03-11T00:51:53.695Z,802.78
2018-03-11T00:51:57.810Z,802.79
2018-03-11T00:52:02.188Z,802.77
2018-03-11T00:52:06.203Z,802.82